Charter Quote
Worldwide +1-877-727-2538 Call
Select Language Lang
SAFETY RELIABILITY EXPERIENCE

Lechfeld Airport (ETSL) - Jet Charter Services

AIRPORT INFORMATION
ICAOETSL
LOCATIONLagerlechfeld, Germany
FACILITY TYPEAIRPORT
Runway Length (ft) Width (ft) Surface Type Elevation (ft)
21/03 8012 98 CON 1820.81967

At Paramount Business Jets you can hire chartered private jets to and from Lechfeld Airport with as little as 4 hours of notice. All flights booked via Paramount Business Jets are operated by certified direct air carriers that meet and exceed the FAA part 135 and 121 protocol or a foreign equivalent safety authority. Furthermore, Paramount Business Jets subscribes to ARGUS for their third party safety checks of operators, aircraft, and crews prior each and every flight to and from Lechfeld Airport and worldwide.

  • Quote a trip using Lechfeld Airport or call us 24/7 - 365 days a year at +1-877-727-2538.
Questions? Call +1-877-727-2538

METAR Weather Data at Lechfeld Airport, ETSL

STATIONETSL
OBSERVEDTue Mar 19, 20:20 UTC
NOWTue Mar 19, 20:54 UTC
AGE34 min ago
WINDWSW at 1 mph
VISIBILITY16 miles
CLOUDSpartly cloudy
TEMP30°F (-1°C)
DEWPT27°F (-3°C)
HUMIDITY86%
BAROMETER1029 hPa (30.39 in Hg)
METARETSL 192020Z 25001KT 9999 FEW060 M01/M03 Q1029 BLU+

Call us on +1-877-727-2538 (24 Hours) to Hire a Private Jet or Get a Quick Quote.

Find Airports Near any Location

Processing
...